Time;durP1;ratioP1;P1;durP2;ratioP2;P2;SDS_P1;SDS_P2;PMS_P1;PMS_P2;Temp;Humidity;BMP_temperature;BMP_pressure;BME280_temperature;BME280_humidity;BME280_pressure;Samples;Min_cycle;Max_cycle;Signal;HPM_P1;HPM_P2
2022/01/31 00:01:45;;;;;;;11.40;5.70;;;4.30;99.90;;;;;;5023664;28;21489;-72
2022/01/31 00:04:10;;;;;;;10.10;6.30;;;4.30;99.90;;;;;;5023777;28;20436;-72
2022/01/31 00:06:36;;;;;;;14.23;5.73;;;4.20;99.90;;;;;;5023481;28;20414;-73
2022/01/31 00:09:02;;;;;;;16.83;5.60;;;4.20;99.90;;;;;;5023728;28;20198;-72
2022/01/31 00:11:28;;;;;;;12.97;6.00;;;4.20;99.90;;;;;;5022982;28;20176;-73
2022/01/31 00:14:09;;;;;;;8.37;5.70;;;4.10;99.90;;;;;;5023556;28;20459;-74
2022/01/31 00:16:35;;;;;;;9.23;5.03;;;4.20;99.90;;;;;;5023651;28;20167;-73
2022/01/31 00:19:00;;;;;;;11.00;5.63;;;4.20;99.90;;;;;;5023600;28;20414;-72
2022/01/31 00:21:27;;;;;;;14.43;6.50;;;4.10;99.90;;;;;;5023444;28;20190;-74
2022/01/31 00:23:53;;;;;;;13.23;6.17;;;4.10;99.90;;;;;;5023602;28;20578;-73
2022/01/31 00:26:18;;;;;;;10.00;5.70;;;4.10;99.90;;;;;;5020767;28;20445;-73
2022/01/31 00:28:44;;;;;;;12.40;5.80;;;4.00;99.90;;;;;;5022095;28;20195;-73
2022/01/31 00:31:10;;;;;;;8.67;4.87;;;4.10;99.90;;;;;;5024746;28;20183;-72
2022/01/31 00:33:36;;;;;;;8.10;5.10;;;4.10;99.90;;;;;;5027441;28;20172;-73
2022/01/31 00:36:01;;;;;;;11.00;5.17;;;4.10;99.90;;;;;;5025838;28;20459;-73
2022/01/31 00:38:27;;;;;;;8.53;5.10;;;4.10;99.90;;;;;;5027222;28;20210;-73
2022/01/31 00:40:53;;;;;;;9.73;4.77;;;4.30;99.90;;;;;;5026774;28;20717;-73
2022/01/31 00:43:20;;;;;;;6.87;5.13;;;4.40;99.90;;;;;;5027113;28;20184;-73
2022/01/31 00:46:01;;;;;;;10.80;5.47;;;4.40;99.90;;;;;;5027066;28;20192;-73
2022/01/31 00:48:29;;;;;;;13.73;5.23;;;4.60;99.90;;;;;;5025802;28;20450;-73
2022/01/31 00:50:54;;;;;;;10.63;4.90;;;4.70;99.90;;;;;;5027194;28;20497;-72
2022/01/31 00:53:20;;;;;;;9.03;4.40;;;4.80;99.90;;;;;;5026788;28;20493;-72
2022/01/31 00:55:45;;;;;;;6.77;4.10;;;4.90;99.90;;;;;;5026558;28;20561;-73
2022/01/31 00:58:11;;;;;;;13.57;5.80;;;5.00;99.90;;;;;;5025338;28;20179;-72
2022/01/31 01:00:37;;;;;;;8.13;4.70;;;5.00;99.90;;;;;;5026919;28;20183;-75
2022/01/31 01:03:04;;;;;;;8.77;4.40;;;5.00;99.90;;;;;;5026357;28;20183;-74
2022/01/31 01:05:29;;;;;;;18.47;5.20;;;5.10;99.90;;;;;;5026660;28;20214;-73
2022/01/31 01:07:55;;;;;;;6.10;4.40;;;5.20;99.90;;;;;;5026827;28;20853;-73
2022/01/31 01:10:21;;;;;;;7.83;4.77;;;5.30;99.90;;;;;;5025908;28;20201;-75
2022/01/31 01:12:47;;;;;;;8.97;4.43;;;5.40;99.90;;;;;;5026695;28;20182;-72
2022/01/31 01:15:15;;;;;;;9.90;5.27;;;5.50;99.90;;;;;;5025009;28;20714;-73
2022/01/31 01:17:41;;;;;;;16.13;5.40;;;5.50;99.90;;;;;;5026286;28;20505;-73
2022/01/31 01:20:08;;;;;;;10.47;4.90;;;5.40;99.90;;;;;;5026594;28;21089;-73
2022/01/31 01:22:34;;;;;;;11.30;4.73;;;5.30;99.90;;;;;;5025098;28;20427;-73
2022/01/31 01:25:03;;;;;;;9.97;5.37;;;5.30;99.90;;;;;;5025728;28;20565;-73
2022/01/31 01:27:28;;;;;;;6.93;5.00;;;5.30;99.90;;;;;;5026449;28;20171;-73
2022/01/31 01:29:55;;;;;;;11.23;6.40;;;5.50;99.90;;;;;;5026177;28;20795;-73
2022/01/31 01:32:21;;;;;;;8.20;4.30;;;5.30;99.90;;;;;;5026581;28;20175;-73
2022/01/31 01:34:47;;;;;;;12.60;4.87;;;5.40;99.90;;;;;;5026379;28;20999;-73
2022/01/31 01:37:12;;;;;;;10.03;4.40;;;5.30;99.90;;;;;;5026236;28;20217;-75
2022/01/31 01:39:38;;;;;;;14.67;5.73;;;5.30;99.90;;;;;;5025883;28;20249;-73
2022/01/31 01:42:04;;;;;;;9.17;4.70;;;5.20;99.90;;;;;;5025653;28;20229;-74
2022/01/31 01:44:44;;;;;;;10.90;4.80;;;5.20;99.90;;;;;;5026254;28;20290;-72
2022/01/31 01:47:10;;;;;;;9.80;5.10;;;5.30;99.90;;;;;;5024150;28;20484;-72
2022/01/31 01:49:36;;;;;;;13.37;5.37;;;5.30;99.90;;;;;;5026154;28;21043;-71
2022/01/31 01:52:02;;;;;;;9.97;4.83;;;5.40;99.90;;;;;;5025995;28;20435;-72
2022/01/31 01:54:28;;;;;;;7.77;4.00;;;5.60;99.90;;;;;;5025424;28;20293;-72
2022/01/31 01:56:54;;;;;;;9.33;4.47;;;5.70;99.90;;;;;;5025629;28;20460;-74
2022/01/31 01:59:19;;;;;;;10.50;4.77;;;5.80;99.90;;;;;;5024617;28;20734;-72
2022/01/31 02:01:45;;;;;;;9.13;4.80;;;5.70;99.90;;;;;;5025712;28;20185;-73
2022/01/31 02:04:10;;;;;;;10.03;5.30;;;5.60;99.90;;;;;;5025646;28;21898;-72
2022/01/31 02:06:36;;;;;;;11.97;4.33;;;5.50;99.90;;;;;;5025597;28;20225;-73
2022/01/31 02:09:03;;;;;;;9.80;4.70;;;5.50;99.90;;;;;;5025672;28;20742;-73
2022/01/31 02:11:28;;;;;;;11.27;5.70;;;5.50;99.90;;;;;;5023662;28;20440;-72
2022/01/31 02:13:54;;;;;;;14.97;5.20;;;5.40;99.90;;;;;;5024181;28;20414;-73
2022/01/31 02:16:20;;;;;;;10.50;5.43;;;5.30;99.90;;;;;;5025323;28;20171;-72
2022/01/31 02:18:50;;;;;;;13.30;6.47;;;5.30;99.90;;;;;;5025431;28;20184;-72
2022/01/31 02:21:17;;;;;;;10.50;4.93;;;5.20;99.90;;;;;;5025536;28;20171;-74
2022/01/31 02:23:44;;;;;;;10.37;4.57;;;5.10;99.90;;;;;;5025639;28;20410;-75
2022/01/31 02:26:10;;;;;;;9.87;4.87;;;5.10;99.90;;;;;;5023134;28;20454;-75
2022/01/31 02:28:37;;;;;;;12.13;5.27;;;5.20;99.90;;;;;;5025286;28;20812;-74
2022/01/31 02:31:04;;;;;;;9.17;5.70;;;5.20;99.90;;;;;;5025095;28;21402;-74
2022/01/31 02:33:31;;;;;;;12.83;5.10;;;5.20;99.90;;;;;;5024951;28;20406;-74
2022/01/31 02:35:59;;;;;;;9.33;4.83;;;5.10;99.90;;;;;;5025143;28;20432;-74
2022/01/31 02:38:26;;;;;;;8.50;4.47;;;5.10;99.90;;;;;;5023512;28;20414;-74
2022/01/31 02:40:52;;;;;;;9.20;5.23;;;5.20;99.90;;;;;;5024655;28;20544;-74
2022/01/31 02:43:26;;;;;;;9.93;5.60;;;5.30;99.90;;;;;;5025120;28;20508;-74
2022/01/31 02:45:52;;;;;;;14.60;5.40;;;5.40;99.90;;;;;;5024320;28;20327;-76
2022/01/31 02:48:21;;;;;;;7.77;5.60;;;5.30;99.90;;;;;;5024798;28;20490;-74
2022/01/31 02:50:47;;;;;;;10.37;5.77;;;5.10;99.90;;;;;;5024916;28;20413;-74
2022/01/31 02:53:22;;;;;;;12.47;5.50;;;5.30;99.90;;;;;;5024102;28;20540;-72
2022/01/31 02:55:48;;;;;;;10.17;5.10;;;5.20;99.90;;;;;;5024114;28;20433;-73
2022/01/31 02:58:15;;;;;;;8.00;5.17;;;5.10;99.90;;;;;;5023380;28;21161;-75
2022/01/31 03:00:41;;;;;;;9.87;5.00;;;5.20;99.90;;;;;;5064355;22;20237;-70
2022/01/31 03:03:07;;;;;;;15.67;5.87;;;5.10;99.90;;;;;;5044013;28;20874;-71
2022/01/31 03:05:33;;;;;;;12.43;5.83;;;5.00;99.90;;;;;;5044196;28;20822;-70
2022/01/31 03:08:00;;;;;;;9.10;5.20;;;4.80;99.90;;;;;;5044252;28;20429;-72
2022/01/31 03:10:26;;;;;;;9.63;5.10;;;4.90;99.90;;;;;;5043970;28;20441;-71
2022/01/31 03:12:51;;;;;;;7.83;4.80;;;4.90;99.90;;;;;;5044283;28;20406;-69
2022/01/31 03:15:17;;;;;;;8.80;5.27;;;5.00;99.90;;;;;;5044064;28;20484;-71
2022/01/31 03:17:47;;;;;;;11.37;4.87;;;5.10;99.90;;;;;;5044091;28;20547;-70
2022/01/31 03:20:15;;;;;;;12.37;4.93;;;5.30;99.90;;;;;;5043969;28;20500;-71
2022/01/31 03:22:41;;;;;;;6.97;5.60;;;5.30;99.90;;;;;;5044153;28;20417;-72
2022/01/31 03:25:07;;;;;;;13.20;5.70;;;5.20;99.90;;;;;;5043576;28;20428;-72
2022/01/31 03:27:33;;;;;;;6.60;5.20;;;5.20;99.90;;;;;;5043976;28;20526;-70
2022/01/31 03:29:58;;;;;;;14.83;5.43;;;5.30;99.90;;;;;;5043950;28;20491;-72
2022/01/31 03:32:24;;;;;;;12.03;5.80;;;5.20;99.90;;;;;;5025508;28;20247;-70
2022/01/31 03:34:50;;;;;;;13.90;5.63;;;5.20;99.90;;;;;;5044224;28;20182;-71
2022/01/31 03:37:16;;;;;;;9.47;5.53;;;5.10;99.90;;;;;;5025923;28;20210;-70
2022/01/31 03:39:41;;;;;;;9.57;5.23;;;5.10;99.90;;;;;;5025708;28;20436;-72
2022/01/31 03:42:07;;;;;;;11.70;5.23;;;5.10;99.90;;;;;;5043669;28;20195;-70
2022/01/31 03:44:32;;;;;;;12.17;5.63;;;5.10;99.90;;;;;;5025840;28;20600;-71
2022/01/31 03:46:58;;;;;;;11.50;5.17;;;5.10;99.90;;;;;;5043358;28;20193;-72
2022/01/31 03:49:24;;;;;;;6.13;4.93;;;4.90;99.90;;;;;;5042683;28;20200;-72
2022/01/31 03:51:50;;;;;;;10.13;5.70;;;5.00;99.90;;;;;;5043542;28;20429;-71
2022/01/31 03:54:16;;;;;;;10.17;5.17;;;4.90;99.90;;;;;;5043820;28;20236;-71
2022/01/31 03:56:42;;;;;;;7.60;5.03;;;5.00;99.90;;;;;;5043741;28;20183;-72
2022/01/31 03:59:08;;;;;;;7.70;5.40;;;4.90;99.90;;;;;;5025485;28;20309;-71
2022/01/31 04:01:34;;;;;;;8.27;6.20;;;4.70;99.90;;;;;;5025210;28;20552;-72
2022/01/31 04:04:00;;;;;;;9.33;5.97;;;4.80;99.90;;;;;;5043384;28;20417;-72
2022/01/31 04:06:26;;;;;;;8.80;6.37;;;5.10;99.90;;;;;;5045875;28;20205;-72
2022/01/31 04:08:52;;;;;;;12.00;5.70;;;5.20;99.90;;;;;;5047537;28;20225;-72
2022/01/31 04:11:17;;;;;;;12.20;5.80;;;5.30;99.90;;;;;;5028448;28;20287;-71
2022/01/31 04:13:43;;;;;;;8.40;5.57;;;5.50;99.90;;;;;;5047651;28;20467;-72
2022/01/31 04:16:09;;;;;;;8.77;5.50;;;5.30;99.90;;;;;;5047070;28;20642;-73
2022/01/31 04:18:35;;;;;;;10.13;5.73;;;5.30;99.90;;;;;;5047603;28;20201;-71
2022/01/31 04:21:00;;;;;;;7.23;4.47;;;5.30;99.90;;;;;;5029146;28;20206;-70
2022/01/31 04:23:28;;;;;;;14.07;4.60;;;5.30;99.90;;;;;;5047684;28;20258;-72
2022/01/31 04:26:02;;;;;;;11.13;6.03;;;5.30;99.90;;;;;;5028896;28;20562;-71
2022/01/31 04:28:42;;;;;;;10.07;4.47;;;5.30;99.90;;;;;;5047384;28;20457;-72
2022/01/31 04:33:46;;;;;;;8.20;4.43;;;5.50;99.90;;;;;;5047359;28;20491;-73
2022/01/31 04:36:14;;;;;;;6.90;4.90;;;5.50;99.90;;;;;;5047138;28;20405;-73
2022/01/31 04:38:43;;;;;;;7.60;4.90;;;5.50;99.90;;;;;;5028991;28;20437;-72
2022/01/31 04:41:08;;;;;;;12.67;4.50;;;5.40;99.90;;;;;;5046590;28;20479;-70
2022/01/31 04:43:34;;;;;;;8.30;4.53;;;5.40;99.90;;;;;;5029426;28;20953;-72
2022/01/31 04:46:03;;;;;;;9.07;4.73;;;5.50;99.90;;;;;;5046546;28;20655;-71
2022/01/31 04:48:28;;;;;;;12.37;4.70;;;5.60;99.90;;;;;;5047154;28;20448;-71
2022/01/31 04:50:54;;;;;;;11.23;5.30;;;5.70;99.90;;;;;;5047110;28;20448;-71
2022/01/31 04:53:20;;;;;;;7.50;4.73;;;5.60;99.90;;;;;;5046960;28;20405;-70
2022/01/31 04:55:46;;;;;;;8.57;4.80;;;5.60;99.90;;;;;;5046855;28;20232;-71
2022/01/31 04:58:12;;;;;;;10.00;4.73;;;5.50;99.90;;;;;;5046335;28;20698;-70
2022/01/31 05:00:38;;;;;;;13.47;5.47;;;5.40;99.90;;;;;;5046525;28;20448;-72
2022/01/31 05:03:10;;;;;;;11.37;4.43;;;5.50;99.90;;;;;;5028527;28;20722;-72
2022/01/31 05:05:36;;;;;;;10.17;4.87;;;5.40;99.90;;;;;;5046678;28;20398;-72
2022/01/31 05:08:02;;;;;;;9.57;4.73;;;5.30;99.90;;;;;;5028512;28;20472;-73
2022/01/31 05:10:28;;;;;;;9.80;5.40;;;5.30;99.90;;;;;;5046337;28;20255;-71
2022/01/31 05:12:53;;;;;;;10.43;5.37;;;5.40;99.90;;;;;;5028890;28;20425;-71
2022/01/31 05:15:19;;;;;;;6.53;4.23;;;5.40;99.90;;;;;;5046581;28;20175;-71
2022/01/31 05:17:44;;;;;;;7.50;4.57;;;5.40;99.90;;;;;;5046208;28;20625;-70
2022/01/31 05:20:10;;;;;;;8.83;5.00;;;5.30;99.90;;;;;;5046868;28;20199;-71
2022/01/31 05:22:36;;;;;;;8.40;4.50;;;5.30;99.90;;;;;;5046239;28;20182;-73
2022/01/31 05:25:02;;;;;;;7.13;4.00;;;5.30;99.90;;;;;;5028959;28;20799;-72
2022/01/31 05:27:27;;;;;;;11.23;5.10;;;5.50;99.90;;;;;;5045990;28;20183;-71
2022/01/31 05:29:53;;;;;;;9.27;4.73;;;5.50;99.90;;;;;;5046414;28;20206;-71
2022/01/31 05:32:18;;;;;;;15.47;5.13;;;5.40;99.90;;;;;;5027885;28;20526;-72
2022/01/31 05:34:44;;;;;;;13.73;4.70;;;5.50;99.90;;;;;;5046200;28;20186;-74
2022/01/31 05:37:10;;;;;;;6.73;4.30;;;5.50;99.90;;;;;;5046214;28;20182;-70
2022/01/31 05:39:35;;;;;;;6.60;3.50;;;5.50;99.90;;;;;;5046176;28;20197;-69
2022/01/31 05:42:01;;;;;;;9.47;4.10;;;5.60;99.90;;;;;;5045829;28;20187;-73
2022/01/31 05:44:27;;;;;;;11.40;4.23;;;5.60;99.90;;;;;;5046365;28;20265;-72
2022/01/31 05:46:52;;;;;;;8.87;4.20;;;5.70;99.90;;;;;;5028579;28;20206;-71
2022/01/31 05:49:19;;;;;;;9.40;5.20;;;5.70;99.90;;;;;;5027153;28;20465;-69
2022/01/31 05:52:06;;;;;;;8.20;5.37;;;5.90;99.90;;;;;;5045990;28;20256;-72
2022/01/31 05:54:33;;;;;;;8.50;4.00;;;5.90;99.90;;;;;;5027134;28;20425;-69
2022/01/31 05:56:59;;;;;;;8.40;3.60;;;5.80;99.90;;;;;;5027327;28;20420;-72
2022/01/31 05:59:25;;;;;;;7.27;3.70;;;6.00;99.90;;;;;;5045725;28;20846;-71
2022/01/31 06:01:51;;;;;;;8.40;3.97;;;5.90;99.90;;;;;;5027300;28;20437;-70
2022/01/31 06:04:17;;;;;;;11.27;5.50;;;5.80;99.90;;;;;;5027525;28;21089;-70
2022/01/31 06:06:43;;;;;;;6.83;3.97;;;5.70;99.90;;;;;;5045673;28;20425;-72
2022/01/31 06:09:09;;;;;;;6.10;3.83;;;5.80;99.90;;;;;;5027410;28;20465;-70
2022/01/31 06:11:34;;;;;;;10.10;4.67;;;5.90;99.90;;;;;;5044719;28;20221;-72
2022/01/31 06:14:02;;;;;;;6.83;3.93;;;5.70;99.90;;;;;;5045369;28;20167;-71
2022/01/31 06:16:28;;;;;;;13.43;5.13;;;5.70;99.90;;;;;;5045194;28;20172;-70
2022/01/31 06:18:54;;;;;;;5.97;3.80;;;5.60;99.90;;;;;;5045436;28;20417;-70
2022/01/31 06:21:20;;;;;;;7.17;4.07;;;5.70;99.90;;;;;;5044863;28;20991;-71
2022/01/31 06:23:46;;;;;;;4.93;4.07;;;5.80;99.90;;;;;;5045385;28;20470;-72
2022/01/31 06:26:11;;;;;;;9.07;4.40;;;5.90;99.90;;;;;;5046107;28;20259;-71
2022/01/31 06:28:37;;;;;;;8.77;5.03;;;5.80;99.90;;;;;;5044060;28;20782;-71
2022/01/31 06:31:03;;;;;;;8.80;4.40;;;5.60;99.90;;;;;;5044701;28;20197;-73
2022/01/31 06:33:29;;;;;;;7.30;5.60;;;5.60;99.90;;;;;;5027114;28;20185;-72
2022/01/31 06:35:55;;;;;;;8.87;4.17;;;5.40;99.90;;;;;;5045125;28;20291;-71
2022/01/31 06:38:21;;;;;;;6.63;4.97;;;5.40;99.90;;;;;;5044930;28;20426;-70
2022/01/31 06:40:48;;;;;;;7.33;4.30;;;5.30;99.90;;;;;;5045267;28;20508;-71
2022/01/31 06:43:13;;;;;;;10.77;4.90;;;5.30;99.90;;;;;;5045041;28;20773;-72
2022/01/31 06:45:39;;;;;;;8.70;4.63;;;5.30;99.90;;;;;;5026676;28;20504;-73
2022/01/31 06:48:05;;;;;;;7.67;4.90;;;5.30;99.90;;;;;;5044664;28;20238;-72
2022/01/31 06:50:31;;;;;;;14.03;5.57;;;5.10;99.90;;;;;;5026259;28;20289;-71
2022/01/31 06:52:59;;;;;;;7.43;4.17;;;5.10;99.90;;;;;;5044920;28;20405;-72
2022/01/31 06:55:26;;;;;;;9.60;5.60;;;5.30;99.90;;;;;;5044383;28;20424;-71
2022/01/31 06:57:52;;;;;;;9.93;5.03;;;5.30;99.90;;;;;;5044896;28;20423;-73
2022/01/31 07:00:19;;;;;;;14.07;5.27;;;5.20;99.90;;;;;;5044846;28;20452;-72
2022/01/31 07:02:49;;;;;;;15.40;5.50;;;5.20;99.90;;;;;;5044246;28;20443;-71
2022/01/31 07:05:16;;;;;;;9.60;5.60;;;5.10;99.90;;;;;;5043882;28;20409;-71
2022/01/31 07:07:42;;;;;;;12.20;5.70;;;5.10;99.90;;;;;;5044310;28;20419;-73
2022/01/31 07:10:09;;;;;;;10.00;5.37;;;5.20;99.90;;;;;;5044449;28;20467;-72
2022/01/31 07:12:38;;;;;;;10.53;6.73;;;5.30;99.90;;;;;;5044372;28;20767;-71
2022/01/31 07:15:09;;;;;;;8.90;6.37;;;5.30;99.90;;;;;;5044384;28;20412;-72
2022/01/31 07:17:37;;;;;;;9.40;4.60;;;5.20;99.90;;;;;;5044085;28;20524;-73
2022/01/31 07:20:11;;;;;;;8.03;5.50;;;5.30;99.90;;;;;;5044306;28;20441;-72
2022/01/31 07:22:39;;;;;;;6.43;4.47;;;5.20;99.90;;;;;;5044075;28;20948;-73
2022/01/31 07:25:21;;;;;;;8.67;5.40;;;5.40;99.90;;;;;;5044355;28;20908;-71
2022/01/31 07:27:47;;;;;;;8.67;5.60;;;5.50;99.90;;;;;;5044607;28;20413;-73
2022/01/31 07:30:13;;;;;;;10.73;5.40;;;5.40;99.90;;;;;;5044739;28;20499;-71
2022/01/31 07:32:41;;;;;;;9.37;4.60;;;5.40;99.90;;;;;;5044266;28;20414;-72
2022/01/31 07:35:10;;;;;;;8.23;4.50;;;5.40;99.90;;;;;;5044333;28;20249;-70
2022/01/31 07:37:35;;;;;;;9.70;4.90;;;5.10;99.90;;;;;;5044164;28;20420;-70
2022/01/31 07:40:03;;;;;;;8.60;4.30;;;5.20;99.90;;;;;;5026459;28;20524;-72
2022/01/31 07:42:28;;;;;;;7.60;4.70;;;5.10;99.90;;;;;;5044234;28;20659;-71
2022/01/31 07:44:54;;;;;;;10.60;4.53;;;5.10;99.90;;;;;;5044480;28;20416;-71
2022/01/31 07:47:20;;;;;;;8.57;4.17;;;5.10;99.90;;;;;;5044153;28;20206;-71
2022/01/31 07:49:46;;;;;;;8.90;4.30;;;5.00;99.90;;;;;;5043799;28;20481;-71
2022/01/31 07:52:12;;;;;;;5.00;3.97;;;5.00;99.90;;;;;;5044118;28;20182;-71
2022/01/31 07:54:39;;;;;;;6.93;3.80;;;5.10;99.90;;;;;;5043941;28;20265;-72
2022/01/31 07:57:05;;;;;;;7.30;4.27;;;5.10;99.90;;;;;;5044300;28;20193;-72
2022/01/31 07:59:30;;;;;;;9.77;4.30;;;5.10;99.90;;;;;;5044414;28;20409;-69
2022/01/31 08:01:56;;;;;;;7.20;4.03;;;5.10;99.90;;;;;;5044236;28;20198;-71
2022/01/31 08:04:22;;;;;;;5.13;2.67;;;5.20;99.90;;;;;;5044035;28;20243;-73
2022/01/31 08:06:47;;;;;;;4.87;2.70;;;5.10;99.90;;;;;;5044387;28;20185;-72
2022/01/31 08:09:13;;;;;;;5.57;3.13;;;5.00;99.90;;;;;;5043978;28;20206;-72
2022/01/31 08:11:39;;;;;;;3.73;2.70;;;5.00;99.90;;;;;;5024763;28;20198;-71
2022/01/31 08:14:09;;;;;;;4.33;2.93;;;5.00;99.90;;;;;;5025607;28;20575;-72
2022/01/31 08:16:36;;;;;;;4.47;3.07;;;5.10;99.90;;;;;;5043495;28;20744;-70
2022/01/31 08:19:05;;;;;;;2.80;2.33;;;5.20;99.90;;;;;;5025816;28;20448;-70
2022/01/31 08:21:31;;;;;;;3.43;2.60;;;5.20;99.90;;;;;;5043780;28;20806;-69
2022/01/31 08:23:57;;;;;;;3.57;2.63;;;5.20;99.90;;;;;;5044385;28;20496;-71
2022/01/31 08:26:23;;;;;;;4.20;2.70;;;5.30;99.90;;;;;;5043838;28;20841;-73
2022/01/31 08:28:56;;;;;;;4.40;2.90;;;5.40;99.90;;;;;;5043938;28;20282;-72
2022/01/31 08:36:34;;;;;;;2.43;2.00;;;5.40;99.90;;;;;;5044318;28;20408;-71
2022/01/31 08:39:08;;;;;;;2.33;2.13;;;5.40;99.90;;;;;;5025710;28;20425;-71
2022/01/31 08:41:36;;;;;;;3.30;1.80;;;5.50;99.90;;;;;;5043544;28;20437;-71
2022/01/31 08:44:02;;;;;;;1.70;1.40;;;5.40;99.90;;;;;;5043393;28;20428;-71
2022/01/31 08:46:28;;;;;;;2.50;1.70;;;5.50;99.90;;;;;;5042277;28;20929;-72
2022/01/31 08:48:55;;;;;;;1.53;1.43;;;5.50;99.90;;;;;;5042831;28;20521;-72
2022/01/31 08:51:20;;;;;;;1.70;1.50;;;5.50;99.90;;;;;;5044103;28;20205;-71
2022/01/31 08:53:48;;;;;;;2.37;1.80;;;5.60;99.90;;;;;;5047377;28;20413;-72
2022/01/31 08:56:14;;;;;;;2.13;1.53;;;5.70;99.90;;;;;;5047161;28;20193;-73
2022/01/31 08:58:45;;;;;;;1.70;1.50;;;5.70;99.90;;;;;;5046884;28;20513;-73
2022/01/31 09:01:12;;;;;;;4.03;1.60;;;5.70;99.90;;;;;;5075762;22;20548;-76
2022/01/31 09:06:05;;;;;;;1.93;1.30;;;5.80;99.90;;;;;;5026267;28;20417;-74
2022/01/31 09:08:31;;;;;;;2.23;1.50;;;5.80;99.90;;;;;;5024824;28;20906;-76
2022/01/31 09:10:57;;;;;;;1.80;1.20;;;5.90;99.90;;;;;;5026171;28;20456;-74
2022/01/31 09:13:23;;;;;;;2.70;1.37;;;6.00;99.90;;;;;;5008797;28;20735;-74
2022/01/31 09:15:49;;;;;;;4.30;1.43;;;6.00;99.90;;;;;;5008649;28;20429;-74
2022/01/31 09:18:15;;;;;;;1.70;1.60;;;6.00;99.90;;;;;;5026473;28;20517;-74
2022/01/31 09:20:41;;;;;;;2.97;1.63;;;6.00;99.90;;;;;;5026640;28;20436;-74
2022/01/31 09:23:06;;;;;;;2.43;2.03;;;6.20;99.90;;;;;;5026301;28;20221;-74
2022/01/31 09:25:33;;;;;;;2.30;1.60;;;6.30;99.90;;;;;;5026243;28;20248;-74
2022/01/31 09:28:00;;;;;;;3.10;1.77;;;6.30;99.90;;;;;;5026307;28;20168;-75
2022/01/31 09:30:29;;;;;;;2.97;1.63;;;6.40;99.90;;;;;;5025959;28;20511;-74
2022/01/31 09:32:56;;;;;;;3.83;1.60;;;6.60;99.90;;;;;;5025807;28;20502;-75
2022/01/31 09:35:22;;;;;;;3.37;1.93;;;6.90;99.90;;;;;;5026188;28;20420;-74
2022/01/31 09:37:48;;;;;;;1.70;1.47;;;6.90;99.90;;;;;;5025980;28;20422;-74
2022/01/31 09:40:19;;;;;;;2.50;1.53;;;6.90;99.90;;;;;;5025403;28;20430;-74
2022/01/31 09:48:38;;;;;;;4.30;1.77;;;6.80;99.90;;;;;;5026021;28;20431;-74
2022/01/31 09:51:14;;;;;;;2.90;2.30;;;6.70;99.90;;;;;;5025733;28;20434;-75
2022/01/31 09:53:45;;;;;;;4.20;2.57;;;6.80;99.90;;;;;;5025957;28;20410;-74
2022/01/31 09:56:14;;;;;;;2.17;1.70;;;6.90;99.90;;;;;;5025776;28;20406;-77
2022/01/31 09:58:41;;;;;;;3.67;1.70;;;7.10;99.90;;;;;;5026040;28;20490;-75
2022/01/31 10:01:16;;;;;;;3.43;2.10;;;7.00;99.90;;;;;;5025008;28;20462;-74
2022/01/31 10:03:58;;;;;;;3.20;1.80;;;6.90;99.90;;;;;;5025237;28;20428;-74
2022/01/31 10:06:24;;;;;;;6.53;2.40;;;6.90;99.90;;;;;;5025635;28;20410;-74
2022/01/31 10:09:05;;;;;;;4.13;1.70;;;6.90;99.90;;;;;;5018466;28;20463;-74
2022/01/31 10:11:40;;;;;;;3.73;2.00;;;6.90;99.90;;;;;;5024220;28;20439;-75
2022/01/31 10:16:55;;;;;;;2.80;2.30;;;6.70;99.90;;;;;;5025576;28;20469;-74
2022/01/31 10:19:21;;;;;;;2.23;2.03;;;6.80;99.90;;;;;;5007440;28;20414;-73
2022/01/31 10:22:05;;;;;;;3.03;1.77;;;6.80;99.90;;;;;;5025219;28;20488;-73
2022/01/31 10:24:32;;;;;;;2.50;2.17;;;6.90;99.90;;;;;;5025132;28;20421;-73
2022/01/31 10:27:06;;;;;;;7.33;2.20;;;7.00;99.90;;;;;;5024720;28;20838;-74
2022/01/31 10:29:32;;;;;;;2.43;2.00;;;7.10;99.90;;;;;;5024949;28;20441;-74
2022/01/31 10:32:11;;;;;;;1.93;1.73;;;7.10;99.90;;;;;;5024544;28;20447;-74
2022/01/31 10:34:53;;;;;;;3.63;2.13;;;7.10;99.90;;;;;;5025061;28;20406;-74
2022/01/31 10:37:21;;;;;;;4.43;2.47;;;7.20;99.90;;;;;;5023508;28;20415;-75
2022/01/31 10:56:53;;;;;;;3.13;1.83;;;7.30;99.90;;;;;;5024658;28;20550;-74
2022/01/31 10:59:24;;;;;;;3.17;2.00;;;7.50;99.90;;;;;;5024443;28;21494;-75
2022/01/31 11:01:52;;;;;;;2.70;1.53;;;7.50;99.90;;;;;;5023747;28;20450;-74
2022/01/31 11:04:18;;;;;;;3.20;2.00;;;7.40;99.90;;;;;;5024338;28;20424;-74
2022/01/31 11:06:47;;;;;;;4.27;1.80;;;7.30;99.90;;;;;;5006608;28;20498;-74
2022/01/31 11:09:15;;;;;;;3.30;1.87;;;7.30;99.90;;;;;;5006340;28;20468;-74
2022/01/31 11:11:44;;;;;;;2.67;2.27;;;7.20;99.90;;;;;;5023992;28;20800;-75
2022/01/31 11:14:10;;;;;;;4.07;2.07;;;7.20;99.90;;;;;;5023967;28;20446;-74
2022/01/31 11:16:38;;;;;;;4.50;1.63;;;7.30;99.90;;;;;;5022662;28;20421;-74
2022/01/31 11:19:07;;;;;;;4.57;1.93;;;7.20;99.90;;;;;;5020121;28;20505;-74
2022/01/31 11:21:46;;;;;;;2.80;1.93;;;7.20;99.90;;;;;;5024083;28;20964;-74
2022/01/31 11:24:21;;;;;;;2.43;2.13;;;7.50;99.90;;;;;;5023844;28;20415;-74
2022/01/31 11:27:01;;;;;;;3.43;1.97;;;7.90;99.90;;;;;;5022864;28;20444;-74
2022/01/31 11:29:27;;;;;;;3.67;1.60;;;7.90;99.90;;;;;;5024236;28;20457;-74
2022/01/31 11:31:54;;;;;;;4.10;2.00;;;7.80;99.90;;;;;;5023566;28;21004;-74
2022/01/31 11:34:22;;;;;;;2.70;1.80;;;7.60;99.90;;;;;;5023642;28;20484;-76
2022/01/31 11:36:47;;;;;;;3.17;1.73;;;7.30;99.90;;;;;;5024197;28;20505;-75
2022/01/31 11:39:15;;;;;;;4.00;2.10;;;7.20;99.90;;;;;;5023768;28;20461;-75
2022/01/31 11:41:48;;;;;;;3.20;1.80;;;7.10;99.90;;;;;;5022494;28;20232;-75
2022/01/31 11:44:27;;;;;;;4.23;2.00;;;7.20;99.90;;;;;;5023537;28;20442;-74
2022/01/31 11:46:55;;;;;;;3.20;1.77;;;7.10;99.90;;;;;;5023501;28;20415;-74
2022/01/31 11:49:21;;;;;;;3.33;2.03;;;6.80;99.90;;;;;;5011924;28;20996;-75
2022/01/31 11:52:07;;;;;;;8.70;2.60;;;6.80;99.90;;;;;;5022934;28;20454;-74
2022/01/31 11:54:36;;;;;;;4.53;2.03;;;6.60;99.90;;;;;;5023298;28;20414;-74
2022/01/31 11:57:12;;;;;;;2.00;1.40;;;6.70;99.90;;;;;;5023406;28;20842;-74
2022/01/31 11:59:39;;;;;;;2.73;1.60;;;6.80;99.90;;;;;;5023645;28;20522;-75
2022/01/31 12:02:04;;;;;;;3.63;1.97;;;6.70;99.90;;;;;;5023255;28;20477;-74
2022/01/31 12:04:33;;;;;;;2.93;1.83;;;6.80;99.90;;;;;;5023704;28;20423;-74
2022/01/31 12:07:19;;;;;;;3.03;1.60;;;6.70;99.90;;;;;;5023433;28;20282;-76
2022/01/31 12:09:54;;;;;;;3.40;1.70;;;6.50;99.90;;;;;;5022145;28;20461;-74
2022/01/31 12:12:40;;;;;;;2.40;1.83;;;6.50;99.90;;;;;;5023050;28;20456;-74
2022/01/31 12:15:33;;;;;;;1.83;1.50;;;6.50;99.90;;;;;;5022613;28;20872;-74
2022/01/31 12:18:44;;;;;;;5.33;1.70;;;6.50;99.90;;;;;;5023269;28;20490;-74
2022/01/31 12:24:08;;;;;;;4.20;1.97;;;6.50;99.90;;;;;;5023403;28;20465;-75
2022/01/31 12:26:50;;;;;;;4.03;1.77;;;6.50;99.90;;;;;;5034334;28;20418;-75
2022/01/31 12:29:18;;;;;;;3.63;2.07;;;6.60;99.90;;;;;;5027076;28;20446;-74
2022/01/31 12:31:48;;;;;;;3.87;2.33;;;6.60;99.90;;;;;;5008381;28;20874;-74
2022/01/31 12:34:22;;;;;;;3.10;1.77;;;6.60;99.90;;;;;;5027154;28;20422;-75
2022/01/31 12:36:59;;;;;;;5.13;2.27;;;6.60;99.90;;;;;;5027363;28;20421;-75
2022/01/31 12:39:28;;;;;;;5.87;1.73;;;6.60;99.90;;;;;;5027260;28;20401;-75
2022/01/31 12:42:01;;;;;;;4.20;1.87;;;6.50;99.90;;;;;;5025515;28;20538;-75
2022/01/31 12:44:33;;;;;;;4.60;2.00;;;6.60;99.90;;;;;;5027356;28;20945;-73
2022/01/31 12:47:15;;;;;;;2.80;1.50;;;6.60;99.90;;;;;;5026504;28;20426;-73
2022/01/31 12:50:03;;;;;;;3.67;1.80;;;6.60;99.90;;;;;;5026670;28;20454;-74
2022/01/31 12:52:35;;;;;;;2.43;1.33;;;6.60;99.90;;;;;;5026288;28;20475;-74
2022/01/31 12:55:11;;;;;;;2.13;1.60;;;6.60;99.90;;;;;;5023059;28;20436;-76
2022/01/31 12:57:53;;;;;;;2.97;1.50;;;6.50;99.90;;;;;;5026983;28;20886;-75
2022/01/31 13:00:41;;;;;;;3.83;1.53;;;6.50;99.90;;;;;;5025283;28;20509;-74
2022/01/31 13:03:08;;;;;;;2.27;1.50;;;6.50;99.90;;;;;;5026545;28;20420;-75
2022/01/31 13:05:40;;;;;;;3.27;1.63;;;6.40;99.90;;;;;;5026810;28;20415;-74
2022/01/31 13:08:23;;;;;;;3.00;1.70;;;6.40;99.90;;;;;;5027013;28;20438;-75
2022/01/31 13:10:51;;;;;;;3.40;2.30;;;6.40;99.90;;;;;;5011386;28;20812;-74
2022/01/31 13:13:32;;;;;;;3.00;2.30;;;6.40;99.90;;;;;;5026602;28;20499;-75
2022/01/31 13:16:09;;;;;;;4.10;1.60;;;6.40;99.90;;;;;;5019600;28;20828;-75
2022/01/31 13:18:35;;;;;;;4.07;2.00;;;6.30;99.90;;;;;;5016711;28;20414;-75
2022/01/31 13:21:05;;;;;;;3.37;2.10;;;6.40;99.90;;;;;;5013044;28;21374;-75
2022/01/31 13:23:32;;;;;;;4.83;1.97;;;6.50;99.90;;;;;;5026368;28;20440;-76
2022/01/31 13:26:00;;;;;;;3.20;1.80;;;6.40;99.90;;;;;;5026371;28;20488;-74
2022/01/31 13:28:26;;;;;;;2.70;1.67;;;6.30;99.90;;;;;;5026248;28;20931;-74
2022/01/31 13:30:52;;;;;;;3.60;2.10;;;6.30;99.90;;;;;;5026280;28;20442;-74
2022/01/31 13:33:19;;;;;;;5.30;2.20;;;6.30;99.90;;;;;;5026076;28;20169;-75
2022/01/31 13:35:47;;;;;;;6.10;1.93;;;6.30;99.90;;;;;;5026408;28;21021;-76
2022/01/31 13:38:15;;;;;;;4.30;1.47;;;6.40;99.90;;;;;;5026128;28;20453;-75
2022/01/31 13:40:45;;;;;;;5.30;1.97;;;6.40;99.90;;;;;;5025839;28;20498;-73